Scottsbluff, Nebraska
Current Conditions -  °F | °C
As of 9:53 AM on Sunday 21 Dec 2014 (Local Time) from KBFF Reporting Station
Scattered Clouds Scattered Clouds  
Wind Chill: 40°   Ceiling: Unl
Heat Index: 40°   Visibility: 10mi
Dew Point: 27°   Wind: 3mph
Humidity: 60%   Direction: 220°SW
Pressure: 29.59"   Gusts: NA
Location:  41.86°N, 103.66°W
Report Text: KBFF 211653Z AUTO 22003KT 10SM SCT120 04/M03 A2959 RMK AO2 SLP029 T00441028
Loading
Personal Weather Stations






























Interactive Weather Map New forecast layout! Learn more

10-Day Weather Forecast

Advertisements
Track Severe Weather on mobile